CEB912 RPLL-RPVM
Flight info
| Callsign | CEB912 |
|---|---|
| Flight time | 1h 8m |
| Altitude | 35000 |
| Route | IPATA2R IPATA W25 BATAY BATAY3P |
| Aircraft | A320/M-SDE3FGHIRWY/LB1 |
Departure
| Time | 2026-05-08 02:45 |
|---|---|
| Airport | Ninoy Aquino International Airport (RPLL) |
Arrival
| Time | 2026-05-08 03:53 |
|---|---|
| Airport | Mactan Cebu International Airport (RPVM) |
| Time | Latitude | Longitude | Altitude | Speed | Heading |
|---|---|---|---|---|---|
| 2026-05-08 02:21 | 14.50862 | 121.01337 | 68 ft | 0 kts | 329° |
| 2026-05-08 02:35 | 14.50849 | 121.01345 | 59 ft | 2 kts | 330° |
| 2026-05-08 02:35 | 14.50834 | 121.01354 | 66 ft | 2 kts | 330° |
| 2026-05-08 02:35 | 14.50820 | 121.01363 | 63 ft | 2 kts | 332° |
| 2026-05-08 02:36 | 14.50805 | 121.01369 | 63 ft | 2 kts | 352° |
| 2026-05-08 02:36 | 14.50790 | 121.01376 | 63 ft | 2 kts | 266° |
| 2026-05-08 02:36 | 14.50794 | 121.01392 | 59 ft | 2 kts | 243° |
| 2026-05-08 02:36 | 14.50798 | 121.01401 | 59 ft | 1 kts | 239° |
| 2026-05-08 02:39 | 14.50792 | 121.01391 | 68 ft | 7 kts | 239° |
| 2026-05-08 02:39 | 14.50751 | 121.01326 | 65 ft | 10 kts | 217° |
| 2026-05-08 02:39 | 14.50688 | 121.01316 | 65 ft | 9 kts | 185° |
| 2026-05-08 02:40 | 14.50649 | 121.01285 | 61 ft | 6 kts | 236° |
| 2026-05-08 02:40 | 14.50629 | 121.01249 | 62 ft | 7 kts | 240° |
| 2026-05-08 02:40 | 14.50575 | 121.01153 | 67 ft | 20 kts | 241° |
| 2026-05-08 02:40 | 14.50506 | 121.01027 | 64 ft | 21 kts | 240° |
| 2026-05-08 02:41 | 14.50433 | 121.00896 | 63 ft | 22 kts | 240° |
| 2026-05-08 02:41 | 14.50355 | 121.00757 | 58 ft | 23 kts | 241° |
| 2026-05-08 02:41 | 14.50273 | 121.00609 | 58 ft | 24 kts | 240° |
| 2026-05-08 02:41 | 14.50186 | 121.00453 | 61 ft | 26 kts | 240° |
| 2026-05-08 02:42 | 14.50095 | 121.00291 | 59 ft | 27 kts | 239° |
| 2026-05-08 02:42 | 14.50001 | 121.00122 | 63 ft | 28 kts | 240° |
| 2026-05-08 02:42 | 14.49915 | 120.99978 | 64 ft | 16 kts | 220° |
| 2026-05-08 02:42 | 14.49867 | 120.99970 | 65 ft | 0 kts | 156° |
| 2026-05-08 02:43 | 14.49864 | 120.99972 | 66 ft | 3 kts | 153° |
| 2026-05-08 02:43 | 14.49818 | 120.99999 | 64 ft | 11 kts | 145° |
| 2026-05-08 02:43 | 14.49830 | 121.00079 | 66 ft | 13 kts | 59° |
| 2026-05-08 02:43 | 14.49851 | 121.00123 | 64 ft | 0 kts | 62° |
| 2026-05-08 02:44 | 14.49855 | 121.00130 | 64 ft | 12 kts | 62° |
| 2026-05-08 02:44 | 14.50032 | 121.00454 | 57 ft | 87 kts | 59° |
| 2026-05-08 02:44 | 14.50436 | 121.01174 | 66 ft | 142 kts | 61° |
| 2026-05-08 02:44 | 14.51009 | 121.02169 | 220 ft | 172 kts | 63° |
| 2026-05-08 02:45 | 14.51570 | 121.03285 | 870 ft | 178 kts | 67° |
| 2026-05-08 02:45 | 14.52065 | 121.04477 | 1565 ft | 182 kts | 70° |
| 2026-05-08 02:45 | 14.52639 | 121.05679 | 2104 ft | 197 kts | 61° |
| 2026-05-08 02:45 | 14.53398 | 121.06965 | 2476 ft | 222 kts | 59° |
| 2026-05-08 02:46 | 14.54261 | 121.08385 | 2856 ft | 245 kts | 59° |
| 2026-05-08 02:46 | 14.55181 | 121.09921 | 3495 ft | 255 kts | 60° |
| 2026-05-08 02:46 | 14.56110 | 121.11508 | 4324 ft | 259 kts | 60° |
| 2026-05-08 02:46 | 14.56949 | 121.13133 | 5172 ft | 261 kts | 69° |
| 2026-05-08 02:47 | 14.57416 | 121.14949 | 5968 ft | 264 kts | 83° |
| 2026-05-08 02:47 | 14.57518 | 121.16849 | 6721 ft | 268 kts | 97° |
| 2026-05-08 02:47 | 14.56913 | 121.18670 | 7453 ft | 274 kts | 122° |
| 2026-05-08 02:47 | 14.55596 | 121.20112 | 8207 ft | 280 kts | 137° |
| 2026-05-08 02:48 | 14.54106 | 121.21428 | 8974 ft | 283 kts | 137° |
| 2026-05-08 02:48 | 14.52604 | 121.22757 | 9721 ft | 286 kts | 137° |
| 2026-05-08 02:48 | 14.51078 | 121.24112 | 10325 ft | 295 kts | 137° |
| 2026-05-08 02:48 | 14.49467 | 121.25549 | 10512 ft | 318 kts | 137° |
| 2026-05-08 02:49 | 14.47742 | 121.27089 | 10795 ft | 334 kts | 137° |
| 2026-05-08 02:49 | 14.45965 | 121.28673 | 11352 ft | 341 kts | 137° |
| 2026-05-08 02:49 | 14.44155 | 121.30281 | 11973 ft | 345 kts | 137° |
| 2026-05-08 02:49 | 14.42322 | 121.31908 | 12588 ft | 349 kts | 137° |
| 2026-05-08 02:50 | 14.40472 | 121.33550 | 13201 ft | 353 kts | 137° |
| 2026-05-08 02:50 | 14.38603 | 121.35213 | 13782 ft | 357 kts | 137° |
| 2026-05-08 02:50 | 14.36709 | 121.36903 | 14494 ft | 362 kts | 137° |
| 2026-05-08 02:50 | 14.34797 | 121.38608 | 15271 ft | 365 kts | 137° |
| 2026-05-08 02:51 | 14.32864 | 121.40324 | 16058 ft | 368 kts | 137° |
| 2026-05-08 02:51 | 14.30916 | 121.42054 | 16821 ft | 371 kts | 137° |
| 2026-05-08 02:51 | 14.28972 | 121.43778 | 17558 ft | 375 kts | 137° |
| 2026-05-08 02:51 | 14.26963 | 121.45561 | 18284 ft | 378 kts | 137° |
| 2026-05-08 02:52 | 14.24961 | 121.47338 | 18890 ft | 382 kts | 137° |
| 2026-05-08 02:52 | 14.22938 | 121.49132 | 19431 ft | 386 kts | 138° |
| 2026-05-08 02:52 | 14.20897 | 121.50942 | 19841 ft | 389 kts | 138° |
| 2026-05-08 02:52 | 14.18832 | 121.52775 | 20256 ft | 393 kts | 138° |
| 2026-05-08 02:53 | 14.16784 | 121.54595 | 20643 ft | 396 kts | 138° |
| 2026-05-08 02:53 | 14.14687 | 121.56459 | 21051 ft | 399 kts | 138° |
| 2026-05-08 02:53 | 14.12572 | 121.58338 | 21436 ft | 402 kts | 138° |
| 2026-05-08 02:53 | 14.10438 | 121.60234 | 21832 ft | 405 kts | 138° |
| 2026-05-08 02:54 | 14.08286 | 121.62143 | 22238 ft | 409 kts | 138° |
| 2026-05-08 02:54 | 14.06853 | 121.63412 | 22500 ft | 411 kts | 138° |
| 2026-05-08 02:54 | 14.04680 | 121.65335 | 22891 ft | 413 kts | 139° |
| 2026-05-08 02:54 | 14.01771 | 121.67906 | 23399 ft | 417 kts | 139° |
| 2026-05-08 02:55 | 14.00281 | 121.69223 | 23621 ft | 419 kts | 139° |
| 2026-05-08 02:55 | 13.95833 | 121.73160 | 24281 ft | 423 kts | 139° |
| 2026-05-08 02:55 | 13.93595 | 121.75139 | 24631 ft | 425 kts | 139° |
| 2026-05-08 02:56 | 13.91345 | 121.77127 | 24945 ft | 427 kts | 139° |
| 2026-05-08 02:56 | 13.89381 | 121.78863 | 25235 ft | 428 kts | 139° |
| 2026-05-08 02:56 | 13.87114 | 121.80867 | 25565 ft | 430 kts | 139° |
| 2026-05-08 02:56 | 13.84794 | 121.82822 | 25883 ft | 432 kts | 142° |
| 2026-05-08 02:57 | 13.82427 | 121.84672 | 26198 ft | 434 kts | 143° |
| 2026-05-08 02:57 | 13.79976 | 121.86493 | 26507 ft | 436 kts | 144° |
| 2026-05-08 02:57 | 13.77496 | 121.88297 | 26810 ft | 437 kts | 144° |
| 2026-05-08 02:57 | 13.75006 | 121.90112 | 27115 ft | 439 kts | 144° |
| 2026-05-08 02:58 | 13.72513 | 121.91948 | 27412 ft | 441 kts | 144° |
| 2026-05-08 02:58 | 13.70025 | 121.93803 | 27713 ft | 443 kts | 144° |
| 2026-05-08 02:58 | 13.67534 | 121.95679 | 28010 ft | 445 kts | 144° |
| 2026-05-08 02:58 | 13.65038 | 121.97570 | 28309 ft | 447 kts | 144° |
| 2026-05-08 02:59 | 13.62533 | 121.99470 | 28614 ft | 448 kts | 144° |
| 2026-05-08 02:59 | 13.60019 | 122.01373 | 28893 ft | 450 kts | 144° |
| 2026-05-08 02:59 | 13.57488 | 122.03280 | 29179 ft | 452 kts | 144° |
| 2026-05-08 02:59 | 13.54946 | 122.05196 | 29460 ft | 454 kts | 144° |
| 2026-05-08 03:00 | 13.52396 | 122.07116 | 29737 ft | 455 kts | 144° |
| 2026-05-08 03:00 | 13.49837 | 122.09044 | 30001 ft | 457 kts | 144° |
| 2026-05-08 03:00 | 13.47301 | 122.10954 | 30220 ft | 459 kts | 144° |
| 2026-05-08 03:00 | 13.44721 | 122.12893 | 30428 ft | 461 kts | 144° |
| 2026-05-08 03:01 | 13.42092 | 122.14866 | 30639 ft | 462 kts | 145° |
| 2026-05-08 03:01 | 13.39524 | 122.16790 | 30838 ft | 464 kts | 145° |
| 2026-05-08 03:01 | 13.36907 | 122.18752 | 31047 ft | 466 kts | 145° |
| 2026-05-08 03:01 | 13.34290 | 122.20718 | 31316 ft | 466 kts | 145° |
| 2026-05-08 03:02 | 13.31674 | 122.22687 | 31608 ft | 465 kts | 145° |
| 2026-05-08 03:02 | 13.29175 | 122.24570 | 31882 ft | 465 kts | 145° |
| 2026-05-08 03:02 | 13.26572 | 122.26531 | 32184 ft | 464 kts | 145° |
| 2026-05-08 03:02 | 13.23965 | 122.28490 | 32465 ft | 464 kts | 145° |
| 2026-05-08 03:03 | 13.21362 | 122.30442 | 32758 ft | 464 kts | 146° |
| 2026-05-08 03:03 | 13.18759 | 122.32393 | 33049 ft | 463 kts | 146° |
| 2026-05-08 03:03 | 13.16152 | 122.34346 | 33337 ft | 463 kts | 146° |
| 2026-05-08 03:03 | 13.13543 | 122.36302 | 33630 ft | 463 kts | 146° |
| 2026-05-08 03:04 | 13.10973 | 122.38229 | 33916 ft | 463 kts | 146° |
| 2026-05-08 03:04 | 13.08379 | 122.40178 | 34166 ft | 462 kts | 146° |
| 2026-05-08 03:04 | 13.05789 | 122.42122 | 34412 ft | 462 kts | 146° |
| 2026-05-08 03:04 | 13.03331 | 122.43963 | 34641 ft | 462 kts | 146° |
| 2026-05-08 03:05 | 13.00734 | 122.45900 | 34844 ft | 462 kts | 146° |
| 2026-05-08 03:05 | 12.95565 | 122.49757 | 34918 ft | 456 kts | 146° |
| 2026-05-08 03:06 | 12.90447 | 122.53590 | 34916 ft | 455 kts | 146° |
| 2026-05-08 03:06 | 12.85326 | 122.57417 | 34915 ft | 455 kts | 146° |
| 2026-05-08 03:07 | 12.80206 | 122.61245 | 34917 ft | 455 kts | 146° |
| 2026-05-08 03:07 | 12.75115 | 122.65049 | 34916 ft | 455 kts | 146° |
| 2026-05-08 03:08 | 12.69991 | 122.68868 | 34911 ft | 455 kts | 146° |
| 2026-05-08 03:08 | 12.64857 | 122.72706 | 34909 ft | 455 kts | 146° |
| 2026-05-08 03:09 | 12.59732 | 122.76526 | 34906 ft | 456 kts | 146° |
| 2026-05-08 03:09 | 12.54603 | 122.80346 | 34906 ft | 456 kts | 146° |
| 2026-05-08 03:10 | 12.49511 | 122.84139 | 34905 ft | 456 kts | 146° |
| 2026-05-08 03:10 | 12.44381 | 122.87961 | 34905 ft | 456 kts | 146° |
| 2026-05-08 03:11 | 12.39258 | 122.91778 | 34901 ft | 456 kts | 146° |
| 2026-05-08 03:11 | 12.34133 | 122.95589 | 34900 ft | 455 kts | 146° |
| 2026-05-08 03:12 | 12.29005 | 122.99401 | 34898 ft | 456 kts | 146° |
| 2026-05-08 03:12 | 12.23872 | 123.03217 | 34900 ft | 456 kts | 146° |
| 2026-05-08 03:13 | 12.18778 | 123.07005 | 34898 ft | 456 kts | 146° |
| 2026-05-08 03:13 | 12.13643 | 123.10821 | 34897 ft | 456 kts | 146° |
| 2026-05-08 03:14 | 12.08915 | 123.14325 | 34896 ft | 456 kts | 146° |
| 2026-05-08 03:14 | 12.03783 | 123.18125 | 34897 ft | 456 kts | 146° |
| 2026-05-08 03:15 | 11.98649 | 123.21929 | 34896 ft | 456 kts | 146° |
| 2026-05-08 03:15 | 11.93509 | 123.25735 | 34898 ft | 456 kts | 146° |
| 2026-05-08 03:16 | 11.88414 | 123.29512 | 34901 ft | 456 kts | 146° |
| 2026-05-08 03:16 | 11.83278 | 123.33318 | 34899 ft | 456 kts | 146° |
| 2026-05-08 03:17 | 11.78180 | 123.37094 | 34899 ft | 456 kts | 146° |
| 2026-05-08 03:17 | 11.73633 | 123.40454 | 34897 ft | 456 kts | 146° |
| 2026-05-08 03:18 | 11.68484 | 123.44255 | 34900 ft | 457 kts | 146° |
| 2026-05-08 03:18 | 11.65937 | 123.46133 | 34383 ft | 460 kts | 146° |
| 2026-05-08 03:18 | 11.63331 | 123.48056 | 33691 ft | 462 kts | 146° |
| 2026-05-08 03:18 | 11.60739 | 123.49970 | 33110 ft | 458 kts | 146° |
| 2026-05-08 03:19 | 11.58161 | 123.51875 | 32545 ft | 455 kts | 145° |
| 2026-05-08 03:19 | 11.55612 | 123.53762 | 31983 ft | 452 kts | 145° |
| 2026-05-08 03:19 | 11.53079 | 123.55638 | 31433 ft | 449 kts | 145° |
| 2026-05-08 03:19 | 11.50549 | 123.57510 | 30883 ft | 446 kts | 145° |
| 2026-05-08 03:20 | 11.48450 | 123.59062 | 30440 ft | 444 kts | 145° |
| 2026-05-08 03:20 | 11.48284 | 123.59184 | 30394 ft | 444 kts | 144° |
| 2026-05-08 03:21 | 11.47303 | 123.59911 | 29541 ft | 438 kts | 143° |
| 2026-05-08 03:22 | 11.44776 | 123.61883 | 28454 ft | 455 kts | 144° |
| 2026-05-08 03:22 | 11.39747 | 123.65565 | 28286 ft | 435 kts | 144° |
| 2026-05-08 03:22 | 11.37297 | 123.67323 | 28003 ft | 425 kts | 144° |
| 2026-05-08 03:23 | 11.34893 | 123.69053 | 27522 ft | 420 kts | 144° |
| 2026-05-08 03:23 | 11.32525 | 123.70776 | 27041 ft | 416 kts | 144° |
| 2026-05-08 03:23 | 11.30186 | 123.72492 | 26579 ft | 411 kts | 143° |
| 2026-05-08 03:23 | 11.27909 | 123.74170 | 26129 ft | 407 kts | 143° |
| 2026-05-08 03:24 | 11.25620 | 123.75861 | 25661 ft | 404 kts | 143° |
| 2026-05-08 03:24 | 11.23351 | 123.77541 | 25200 ft | 401 kts | 143° |
| 2026-05-08 03:24 | 11.21105 | 123.79200 | 24727 ft | 396 kts | 143° |
| 2026-05-08 03:24 | 11.18877 | 123.80839 | 24263 ft | 394 kts | 143° |
| 2026-05-08 03:25 | 11.16528 | 123.82273 | 23784 ft | 394 kts | 155° |
| 2026-05-08 03:25 | 11.13937 | 123.83142 | 23279 ft | 394 kts | 168° |
| 2026-05-08 03:25 | 11.11209 | 123.83400 | 22772 ft | 393 kts | 181° |
| 2026-05-08 03:25 | 11.08510 | 123.83037 | 22298 ft | 392 kts | 193° |
| 2026-05-08 03:26 | 11.05890 | 123.82303 | 21822 ft | 389 kts | 194° |
| 2026-05-08 03:26 | 11.03283 | 123.81569 | 21351 ft | 388 kts | 194° |
| 2026-05-08 03:26 | 11.00684 | 123.80840 | 20879 ft | 386 kts | 194° |
| 2026-05-08 03:26 | 10.98096 | 123.80115 | 20407 ft | 384 kts | 193° |
| 2026-05-08 03:27 | 10.95520 | 123.79396 | 19944 ft | 383 kts | 193° |
| 2026-05-08 03:27 | 10.92984 | 123.78691 | 19484 ft | 382 kts | 193° |
| 2026-05-08 03:27 | 10.90415 | 123.77977 | 19028 ft | 381 kts | 193° |
| 2026-05-08 03:27 | 10.87855 | 123.77262 | 18564 ft | 381 kts | 193° |
| 2026-05-08 03:28 | 10.85293 | 123.76545 | 18101 ft | 381 kts | 192° |
| 2026-05-08 03:28 | 10.82745 | 123.75832 | 17600 ft | 379 kts | 193° |
| 2026-05-08 03:28 | 10.80200 | 123.75121 | 17137 ft | 377 kts | 193° |
| 2026-05-08 03:28 | 10.77702 | 123.74426 | 16705 ft | 375 kts | 193° |
| 2026-05-08 03:29 | 10.75189 | 123.73729 | 16305 ft | 372 kts | 193° |
| 2026-05-08 03:29 | 10.72698 | 123.73036 | 15850 ft | 370 kts | 193° |
| 2026-05-08 03:29 | 10.70229 | 123.72351 | 15431 ft | 368 kts | 193° |
| 2026-05-08 03:29 | 10.67774 | 123.71671 | 15062 ft | 362 kts | 193° |
| 2026-05-08 03:30 | 10.63044 | 123.70355 | 14139 ft | 340 kts | 193° |
| 2026-05-08 03:30 | 10.58672 | 123.69131 | 13325 ft | 320 kts | 193° |
| 2026-05-08 03:31 | 10.54538 | 123.67978 | 12577 ft | 303 kts | 193° |
| 2026-05-08 03:31 | 10.50686 | 123.66909 | 11869 ft | 300 kts | 193° |
| 2026-05-08 03:32 | 10.48675 | 123.66350 | 11509 ft | 299 kts | 193° |
| 2026-05-08 03:32 | 10.46663 | 123.65793 | 11145 ft | 300 kts | 192° |
| 2026-05-08 03:32 | 10.44659 | 123.65239 | 10844 ft | 298 kts | 192° |
| 2026-05-08 03:32 | 10.42685 | 123.64693 | 10478 ft | 299 kts | 192° |
| 2026-05-08 03:33 | 10.40672 | 123.64133 | 10094 ft | 300 kts | 192° |
| 2026-05-08 03:33 | 10.38665 | 123.63573 | 9991 ft | 300 kts | 192° |
| 2026-05-08 03:33 | 10.36602 | 123.63204 | 9527 ft | 304 kts | 177° |
| 2026-05-08 03:33 | 10.34548 | 123.63514 | 9248 ft | 294 kts | 159° |
| 2026-05-08 03:34 | 10.32732 | 123.64384 | 8739 ft | 286 kts | 142° |
| 2026-05-08 03:34 | 10.31268 | 123.65706 | 8100 ft | 281 kts | 131° |
| 2026-05-08 03:34 | 10.29901 | 123.67117 | 7516 ft | 278 kts | 132° |
| 2026-05-08 03:34 | 10.28563 | 123.68485 | 6946 ft | 274 kts | 133° |
| 2026-05-08 03:35 | 10.27205 | 123.69865 | 6439 ft | 271 kts | 133° |
| 2026-05-08 03:35 | 10.25880 | 123.71210 | 5959 ft | 275 kts | 133° |
| 2026-05-08 03:35 | 10.22992 | 123.74140 | 5118 ft | 266 kts | 133° |
| 2026-05-08 03:36 | 10.22109 | 123.75034 | 4692 ft | 264 kts | 133° |
| 2026-05-08 03:36 | 10.20808 | 123.76349 | 4087 ft | 262 kts | 133° |
| 2026-05-08 03:36 | 10.19097 | 123.78086 | 3439 ft | 265 kts | 132° |
| 2026-05-08 03:36 | 10.18238 | 123.78961 | 3231 ft | 262 kts | 133° |
| 2026-05-08 03:37 | 10.16997 | 123.80255 | 3085 ft | 250 kts | 127° |
| 2026-05-08 03:37 | 10.16315 | 123.81784 | 2967 ft | 233 kts | 96° |
| 2026-05-08 03:37 | 10.16519 | 123.83352 | 2859 ft | 221 kts | 66° |
| 2026-05-08 03:37 | 10.17424 | 123.84580 | 2763 ft | 219 kts | 46° |
| 2026-05-08 03:38 | 10.18514 | 123.85666 | 2664 ft | 219 kts | 47° |
| 2026-05-08 03:38 | 10.19602 | 123.86754 | 2542 ft | 220 kts | 47° |
| 2026-05-08 03:38 | 10.20688 | 123.87845 | 2450 ft | 219 kts | 46° |
| 2026-05-08 03:38 | 10.21768 | 123.88932 | 2224 ft | 218 kts | 47° |
| 2026-05-08 03:39 | 10.22816 | 123.89983 | 1944 ft | 206 kts | 46° |
| 2026-05-08 03:39 | 10.23798 | 123.90965 | 1693 ft | 189 kts | 47° |
| 2026-05-08 03:39 | 10.24689 | 123.91854 | 1451 ft | 170 kts | 46° |
| 2026-05-08 03:39 | 10.25480 | 123.92643 | 1221 ft | 152 kts | 46° |
| 2026-05-08 03:40 | 10.26206 | 123.93368 | 1020 ft | 141 kts | 47° |
| 2026-05-08 03:40 | 10.26889 | 123.94052 | 838 ft | 139 kts | 46° |
| 2026-05-08 03:40 | 10.27577 | 123.94742 | 653 ft | 137 kts | 44° |
| 2026-05-08 03:40 | 10.28247 | 123.95418 | 463 ft | 136 kts | 47° |
| 2026-05-08 03:41 | 10.28913 | 123.96103 | 310 ft | 139 kts | 44° |
| 2026-05-08 03:41 | 10.29593 | 123.96778 | 102 ft | 135 kts | 44° |
| 2026-05-08 03:41 | 10.30254 | 123.97409 | 44 ft | 116 kts | 40° |
| 2026-05-08 03:41 | 10.30860 | 123.97989 | 398 ft | 124 kts | 44° |
| 2026-05-08 03:42 | 10.31486 | 123.98662 | 1109 ft | 138 kts | 47° |
| 2026-05-08 03:42 | 10.32327 | 123.99488 | 1289 ft | 204 kts | 41° |
| 2026-05-08 03:42 | 10.33472 | 124.00462 | 2017 ft | 216 kts | 40° |
| 2026-05-08 03:42 | 10.34614 | 124.01458 | 2805 ft | 218 kts | 51° |
| 2026-05-08 03:43 | 10.35291 | 124.02799 | 3558 ft | 219 kts | 78° |
| 2026-05-08 03:43 | 10.35253 | 124.04293 | 3889 ft | 220 kts | 107° |
| 2026-05-08 03:43 | 10.34439 | 124.05603 | 3988 ft | 224 kts | 136° |
| 2026-05-08 03:43 | 10.33051 | 124.06325 | 4009 ft | 230 kts | 166° |
| 2026-05-08 03:44 | 10.31441 | 124.06218 | 4013 ft | 238 kts | 198° |
| 2026-05-08 03:44 | 10.30001 | 124.05361 | 4014 ft | 242 kts | 211° |
| 2026-05-08 03:44 | 10.28603 | 124.04405 | 4009 ft | 242 kts | 211° |
| 2026-05-08 03:44 | 10.27203 | 124.03450 | 4011 ft | 243 kts | 211° |
| 2026-05-08 03:45 | 10.25801 | 124.02497 | 4012 ft | 243 kts | 211° |
| 2026-05-08 03:45 | 10.24401 | 124.01547 | 4012 ft | 242 kts | 211° |
| 2026-05-08 03:45 | 10.22998 | 124.00595 | 4013 ft | 243 kts | 211° |
| 2026-05-08 03:45 | 10.21591 | 123.99640 | 4013 ft | 242 kts | 210° |
| 2026-05-08 03:46 | 10.20195 | 123.98694 | 4012 ft | 242 kts | 211° |
| 2026-05-08 03:46 | 10.18795 | 123.97744 | 4011 ft | 242 kts | 211° |
| 2026-05-08 03:46 | 10.17397 | 123.96795 | 4014 ft | 241 kts | 211° |
| 2026-05-08 03:46 | 10.16002 | 123.95847 | 4013 ft | 242 kts | 210° |
| 2026-05-08 03:47 | 10.14608 | 123.94899 | 4009 ft | 241 kts | 210° |
| 2026-05-08 03:47 | 10.13215 | 123.93953 | 4006 ft | 241 kts | 210° |
| 2026-05-08 03:47 | 10.11965 | 123.92844 | 3893 ft | 244 kts | 231° |
| 2026-05-08 03:47 | 10.11303 | 123.91271 | 3615 ft | 245 kts | 262° |
| 2026-05-08 03:48 | 10.11446 | 123.89567 | 3295 ft | 243 kts | 292° |
| 2026-05-08 03:48 | 10.12189 | 123.88045 | 3151 ft | 244 kts | 299° |
| 2026-05-08 03:48 | 10.12969 | 123.86507 | 3039 ft | 245 kts | 301° |
| 2026-05-08 03:48 | 10.14075 | 123.85244 | 2912 ft | 237 kts | 330° |
| 2026-05-08 03:49 | 10.15576 | 123.84659 | 2789 ft | 229 kts | 357° |
| 2026-05-08 03:49 | 10.17127 | 123.84805 | 2671 ft | 222 kts | 23° |
| 2026-05-08 03:49 | 10.18432 | 123.85585 | 2549 ft | 217 kts | 46° |
| 2026-05-08 03:49 | 10.19505 | 123.86671 | 2468 ft | 218 kts | 48° |
| 2026-05-08 03:50 | 10.20578 | 123.87753 | 2402 ft | 216 kts | 46° |
| 2026-05-08 03:50 | 10.21653 | 123.88830 | 2267 ft | 220 kts | 46° |
| 2026-05-08 03:50 | 10.22732 | 123.89905 | 1961 ft | 216 kts | 46° |
| 2026-05-08 03:50 | 10.23792 | 123.90962 | 1675 ft | 206 kts | 46° |
| 2026-05-08 03:51 | 10.24788 | 123.91958 | 1412 ft | 197 kts | 47° |
| 2026-05-08 03:51 | 10.25737 | 123.92907 | 1168 ft | 185 kts | 46° |
| 2026-05-08 03:51 | 10.26619 | 123.93786 | 927 ft | 171 kts | 46° |
| 2026-05-08 03:51 | 10.27426 | 123.94594 | 707 ft | 158 kts | 45° |
| 2026-05-08 03:52 | 10.28179 | 123.95351 | 475 ft | 145 kts | 46° |
| 2026-05-08 03:52 | 10.28862 | 123.96058 | 289 ft | 139 kts | 44° |
| 2026-05-08 03:52 | 10.29542 | 123.96738 | 108 ft | 136 kts | 43° |
| 2026-05-08 03:52 | 10.30197 | 123.97381 | 35 ft | 115 kts | 44° |
| 2026-05-08 03:53 | 10.30548 | 123.97736 | 36 ft | 32 kts | 45° |
| 2026-05-08 03:53 | 10.30699 | 123.97887 | 35 ft | 29 kts | 44° |
| 2026-05-08 03:53 | 10.30843 | 123.98032 | 35 ft | 29 kts | 45° |
| 2026-05-08 03:53 | 10.30982 | 123.98172 | 36 ft | 28 kts | 44° |
| 2026-05-08 03:54 | 10.31135 | 123.98290 | 38 ft | 27 kts | 27° |
| 2026-05-08 03:54 | 10.31297 | 123.98352 | 39 ft | 22 kts | 10° |
| 2026-05-08 03:54 | 10.31426 | 123.98285 | 38 ft | 20 kts | 315° |
| 2026-05-08 03:54 | 10.31527 | 123.98185 | 39 ft | 20 kts | 313° |
| 2026-05-08 03:55 | 10.31561 | 123.98102 | 39 ft | 8 kts | 244° |
| 2026-05-08 03:55 | 10.31523 | 123.98063 | 39 ft | 7 kts | 223° |
| 2026-05-08 03:55 | 10.31506 | 123.98030 | 39 ft | 4 kts | 303° |
| 2026-05-08 03:55 | 10.31523 | 123.98012 | 38 ft | 3 kts | 313° |
| 2026-05-08 03:56 | 10.31536 | 123.97999 | 39 ft | 2 kts | 314° |
| 2026-05-08 03:56 | 10.31544 | 123.97990 | 39 ft | 1 kts | 315° |
| 2026-05-08 03:56 | 10.31548 | 123.97986 | 39 ft | 0 kts | 315° |
| 2026-05-08 03:56 | 10.31550 | 123.97985 | 39 ft | 1 kts | 315° |
| 2026-05-08 03:57 | 10.31555 | 123.97979 | 39 ft | 1 kts | 315° |
| 2026-05-08 03:57 | 10.31557 | 123.97978 | 39 ft | 0 kts | 315° |
| 2026-05-08 03:57 | 10.31558 | 123.97976 | 39 ft | 1 kts | 315° |
| 2026-05-08 03:57 | 10.31561 | 123.97974 | 39 ft | 0 kts | 315° |